sensor_id;sensor_type;location;lat;lon;timestamp;P1;durP1;ratioP1;P2;durP2;ratioP2
72354;SDS011;60314;55.040;73.076;2022-07-01T00:01:41;6.00;;;1.95;;
72354;SDS011;60314;55.040;73.076;2022-07-01T00:04:08;7.50;;;2.25;;
72354;SDS011;60314;55.040;73.076;2022-07-01T00:06:35;5.20;;;2.50;;
72354;SDS011;60314;55.040;73.076;2022-07-01T00:09:12;6.95;;;2.30;;
72354;SDS011;60314;55.040;73.076;2022-07-01T00:11:39;4.53;;;2.10;;
72354;SDS011;60314;55.040;73.076;2022-07-01T00:14:05;7.03;;;2.10;;
72354;SDS011;60314;55.040;73.076;2022-07-01T00:16:33;6.40;;;2.47;;
72354;SDS011;60314;55.040;73.076;2022-07-01T00:19:03;6.47;;;2.58;;
72354;SDS011;60314;55.040;73.076;2022-07-01T00:21:30;4.63;;;2.15;;
72354;SDS011;60314;55.040;73.076;2022-07-01T00:23:58;6.78;;;2.53;;
72354;SDS011;60314;55.040;73.076;2022-07-01T00:26:24;6.07;;;2.20;;
72354;SDS011;60314;55.040;73.076;2022-07-01T00:28:52;6.50;;;2.58;;
72354;SDS011;60314;55.040;73.076;2022-07-01T00:31:18;6.18;;;1.92;;
72354;SDS011;60314;55.040;73.076;2022-07-01T00:33:45;4.85;;;1.80;;
72354;SDS011;60314;55.040;73.076;2022-07-01T00:36:11;5.88;;;2.17;;
72354;SDS011;60314;55.040;73.076;2022-07-01T00:38:38;4.72;;;2.25;;
72354;SDS011;60314;55.040;73.076;2022-07-01T00:41:04;5.43;;;2.22;;
72354;SDS011;60314;55.040;73.076;2022-07-01T00:43:36;4.60;;;2.25;;
72354;SDS011;60314;55.040;73.076;2022-07-01T00:46:04;7.95;;;2.70;;
72354;SDS011;60314;55.040;73.076;2022-07-01T00:48:31;5.45;;;2.30;;
72354;SDS011;60314;55.040;73.076;2022-07-01T00:51:00;4.70;;;2.22;;
72354;SDS011;60314;55.040;73.076;2022-07-01T00:53:27;6.28;;;2.35;;
72354;SDS011;60314;55.040;73.076;2022-07-01T00:55:54;3.65;;;1.92;;
72354;SDS011;60314;55.040;73.076;2022-07-01T00:58:20;6.47;;;2.10;;
72354;SDS011;60314;55.040;73.076;2022-07-01T01:00:53;7.45;;;2.58;;
72354;SDS011;60314;55.040;73.076;2022-07-01T01:03:20;4.90;;;2.08;;
72354;SDS011;60314;55.040;73.076;2022-07-01T01:05:47;4.63;;;2.20;;
72354;SDS011;60314;55.040;73.076;2022-07-01T01:08:19;5.43;;;2.30;;
72354;SDS011;60314;55.040;73.076;2022-07-01T01:10:54;4.30;;;2.00;;
72354;SDS011;60314;55.040;73.076;2022-07-01T01:13:21;4.75;;;2.10;;
72354;SDS011;60314;55.040;73.076;2022-07-01T01:15:49;3.85;;;2.05;;
72354;SDS011;60314;55.040;73.076;2022-07-01T01:18:19;5.25;;;2.17;;
72354;SDS011;60314;55.040;73.076;2022-07-01T01:20:46;3.95;;;1.83;;
72354;SDS011;60314;55.040;73.076;2022-07-01T01:23:17;3.80;;;1.75;;
72354;SDS011;60314;55.040;73.076;2022-07-01T01:25:44;6.13;;;2.13;;
72354;SDS011;60314;55.040;73.076;2022-07-01T01:28:13;4.47;;;1.92;;
72354;SDS011;60314;55.040;73.076;2022-07-01T01:30:50;3.78;;;1.80;;
72354;SDS011;60314;55.040;73.076;2022-07-01T01:33:16;4.53;;;2.10;;
72354;SDS011;60314;55.040;73.076;2022-07-01T01:35:43;4.82;;;2.10;;
72354;SDS011;60314;55.040;73.076;2022-07-01T01:38:09;4.68;;;2.20;;
72354;SDS011;60314;55.040;73.076;2022-07-01T01:40:36;4.28;;;1.80;;
72354;SDS011;60314;55.040;73.076;2022-07-01T01:43:02;4.43;;;2.30;;
72354;SDS011;60314;55.040;73.076;2022-07-01T01:45:30;3.88;;;1.80;;
72354;SDS011;60314;55.040;73.076;2022-07-01T01:47:56;4.20;;;1.90;;
72354;SDS011;60314;55.040;73.076;2022-07-01T01:50:23;4.72;;;1.88;;
72354;SDS011;60314;55.040;73.076;2022-07-01T01:52:49;6.85;;;2.15;;
72354;SDS011;60314;55.040;73.076;2022-07-01T01:55:16;4.72;;;2.10;;
72354;SDS011;60314;55.040;73.076;2022-07-01T01:57:42;4.07;;;2.15;;
72354;SDS011;60314;55.040;73.076;2022-07-01T02:00:11;7.30;;;2.22;;
72354;SDS011;60314;55.040;73.076;2022-07-01T02:02:38;5.18;;;2.10;;
72354;SDS011;60314;55.040;73.076;2022-07-01T02:05:06;6.18;;;1.90;;
72354;SDS011;60314;55.040;73.076;2022-07-01T02:07:37;4.63;;;2.05;;
72354;SDS011;60314;55.040;73.076;2022-07-01T02:10:04;6.00;;;2.30;;
72354;SDS011;60314;55.040;73.076;2022-07-01T02:12:31;5.05;;;2.50;;
72354;SDS011;60314;55.040;73.076;2022-07-01T02:14:58;5.45;;;2.30;;
72354;SDS011;60314;55.040;73.076;2022-07-01T02:17:24;5.50;;;2.00;;
72354;SDS011;60314;55.040;73.076;2022-07-01T02:19:52;6.35;;;2.33;;
72354;SDS011;60314;55.040;73.076;2022-07-01T02:22:19;7.65;;;2.35;;
72354;SDS011;60314;55.040;73.076;2022-07-01T02:24:45;5.32;;;2.15;;
72354;SDS011;60314;55.040;73.076;2022-07-01T02:27:12;4.88;;;2.03;;
72354;SDS011;60314;55.040;73.076;2022-07-01T02:29:38;5.15;;;2.30;;
72354;SDS011;60314;55.040;73.076;2022-07-01T02:32:07;6.85;;;2.15;;
72354;SDS011;60314;55.040;73.076;2022-07-01T02:34:34;6.43;;;2.42;;
72354;SDS011;60314;55.040;73.076;2022-07-01T02:37:04;7.00;;;2.28;;
72354;SDS011;60314;55.040;73.076;2022-07-01T02:39:34;8.48;;;2.33;;
72354;SDS011;60314;55.040;73.076;2022-07-01T02:42:00;5.03;;;2.53;;
72354;SDS011;60314;55.040;73.076;2022-07-01T02:44:45;4.22;;;2.17;;
72354;SDS011;60314;55.040;73.076;2022-07-01T02:47:11;4.53;;;2.13;;
72354;SDS011;60314;55.040;73.076;2022-07-01T02:49:39;5.47;;;2.13;;
72354;SDS011;60314;55.040;73.076;2022-07-01T02:52:10;5.77;;;2.20;;
72354;SDS011;60314;55.040;73.076;2022-07-01T02:54:39;5.90;;;2.60;;
72354;SDS011;60314;55.040;73.076;2022-07-01T02:57:05;4.80;;;1.90;;
72354;SDS011;60314;55.040;73.076;2022-07-01T02:59:32;6.72;;;2.22;;
72354;SDS011;60314;55.040;73.076;2022-07-01T03:01:58;3.72;;;2.10;;
72354;SDS011;60314;55.040;73.076;2022-07-01T03:04:24;6.80;;;2.45;;
72354;SDS011;60314;55.040;73.076;2022-07-01T03:06:51;4.22;;;2.20;;
72354;SDS011;60314;55.040;73.076;2022-07-01T03:09:18;5.45;;;2.40;;
72354;SDS011;60314;55.040;73.076;2022-07-01T03:11:49;8.25;;;2.50;;
72354;SDS011;60314;55.040;73.076;2022-07-01T03:14:34;7.63;;;2.40;;
72354;SDS011;60314;55.040;73.076;2022-07-01T03:17:01;6.32;;;2.42;;
72354;SDS011;60314;55.040;73.076;2022-07-01T03:19:28;7.07;;;2.40;;
72354;SDS011;60314;55.040;73.076;2022-07-01T03:21:55;5.32;;;2.50;;
72354;SDS011;60314;55.040;73.076;2022-07-01T03:24:21;5.80;;;2.35;;
72354;SDS011;60314;55.040;73.076;2022-07-01T03:26:47;4.18;;;2.58;;
72354;SDS011;60314;55.040;73.076;2022-07-01T03:29:14;6.28;;;2.50;;
72354;SDS011;60314;55.040;73.076;2022-07-01T03:31:40;6.88;;;2.22;;
72354;SDS011;60314;55.040;73.076;2022-07-01T03:34:07;4.97;;;2.30;;
72354;SDS011;60314;55.040;73.076;2022-07-01T03:36:33;7.50;;;2.30;;
72354;SDS011;60314;55.040;73.076;2022-07-01T03:39:02;4.30;;;2.35;;
72354;SDS011;60314;55.040;73.076;2022-07-01T03:41:30;6.68;;;2.83;;
72354;SDS011;60314;55.040;73.076;2022-07-01T03:43:56;6.25;;;2.45;;
72354;SDS011;60314;55.040;73.076;2022-07-01T03:46:23;6.45;;;2.60;;
72354;SDS011;60314;55.040;73.076;2022-07-01T03:48:49;6.55;;;2.78;;
72354;SDS011;60314;55.040;73.076;2022-07-01T03:51:16;5.28;;;2.80;;
72354;SDS011;60314;55.040;73.076;2022-07-01T03:53:43;4.90;;;2.50;;
72354;SDS011;60314;55.040;73.076;2022-07-01T03:56:37;5.38;;;2.45;;
72354;SDS011;60314;55.040;73.076;2022-07-01T03:59:04;4.75;;;2.55;;
72354;SDS011;60314;55.040;73.076;2022-07-01T04:01:30;5.38;;;2.78;;
72354;SDS011;60314;55.040;73.076;2022-07-01T04:03:59;5.95;;;2.70;;
72354;SDS011;60314;55.040;73.076;2022-07-01T04:06:26;7.65;;;2.95;;
72354;SDS011;60314;55.040;73.076;2022-07-01T04:08:52;7.22;;;2.90;;
72354;SDS011;60314;55.040;73.076;2022-07-01T04:11:19;6.55;;;2.55;;
72354;SDS011;60314;55.040;73.076;2022-07-01T04:13:49;5.00;;;3.08;;
72354;SDS011;60314;55.040;73.076;2022-07-01T04:16:25;5.22;;;2.90;;
72354;SDS011;60314;55.040;73.076;2022-07-01T04:18:51;5.38;;;2.80;;
72354;SDS011;60314;55.040;73.076;2022-07-01T04:21:19;8.63;;;2.60;;
72354;SDS011;60314;55.040;73.076;2022-07-01T04:24:06;6.20;;;2.30;;
72354;SDS011;60314;55.040;73.076;2022-07-01T04:26:33;7.70;;;2.60;;
72354;SDS011;60314;55.040;73.076;2022-07-01T04:29:02;7.70;;;2.75;;
72354;SDS011;60314;55.040;73.076;2022-07-01T04:31:28;5.43;;;3.15;;
72354;SDS011;60314;55.040;73.076;2022-07-01T04:33:55;8.93;;;2.90;;
72354;SDS011;60314;55.040;73.076;2022-07-01T04:36:21;7.47;;;3.05;;
72354;SDS011;60314;55.040;73.076;2022-07-01T04:38:48;5.70;;;2.63;;
72354;SDS011;60314;55.040;73.076;2022-07-01T04:41:14;8.63;;;3.13;;
72354;SDS011;60314;55.040;73.076;2022-07-01T04:43:59;4.82;;;2.47;;
72354;SDS011;60314;55.040;73.076;2022-07-01T04:46:26;7.55;;;2.80;;
72354;SDS011;60314;55.040;73.076;2022-07-01T04:49:04;5.15;;;2.65;;
72354;SDS011;60314;55.040;73.076;2022-07-01T04:51:30;7.93;;;2.90;;
72354;SDS011;60314;55.040;73.076;2022-07-01T04:54:01;4.13;;;2.53;;
72354;SDS011;60314;55.040;73.076;2022-07-01T04:56:28;4.78;;;2.72;;
72354;SDS011;60314;55.040;73.076;2022-07-01T04:58:55;6.57;;;2.60;;
72354;SDS011;60314;55.040;73.076;2022-07-01T05:01:22;9.68;;;3.08;;
72354;SDS011;60314;55.040;73.076;2022-07-01T05:03:49;5.78;;;2.75;;
72354;SDS011;60314;55.040;73.076;2022-07-01T05:06:16;4.72;;;2.60;;
72354;SDS011;60314;55.040;73.076;2022-07-01T05:08:43;8.60;;;2.92;;
72354;SDS011;60314;55.040;73.076;2022-07-01T05:11:09;5.15;;;2.78;;
72354;SDS011;60314;55.040;73.076;2022-07-01T05:16:08;6.35;;;2.50;;
72354;SDS011;60314;55.040;73.076;2022-07-01T05:18:39;4.15;;;2.58;;
72354;SDS011;60314;55.040;73.076;2022-07-01T05:21:24;5.15;;;2.60;;
72354;SDS011;60314;55.040;73.076;2022-07-01T05:24:09;5.45;;;2.75;;
72354;SDS011;60314;55.040;73.076;2022-07-01T05:26:44;6.25;;;2.65;;
72354;SDS011;60314;55.040;73.076;2022-07-01T05:29:10;4.95;;;2.50;;
72354;SDS011;60314;55.040;73.076;2022-07-01T05:31:37;6.13;;;3.10;;
72354;SDS011;60314;55.040;73.076;2022-07-01T05:34:04;4.53;;;2.80;;
72354;SDS011;60314;55.040;73.076;2022-07-01T05:36:33;5.30;;;2.78;;
72354;SDS011;60314;55.040;73.076;2022-07-01T05:39:00;5.05;;;2.60;;
72354;SDS011;60314;55.040;73.076;2022-07-01T05:41:27;4.80;;;2.85;;
72354;SDS011;60314;55.040;73.076;2022-07-01T05:43:54;6.43;;;3.10;;
72354;SDS011;60314;55.040;73.076;2022-07-01T05:46:21;8.57;;;3.33;;
72354;SDS011;60314;55.040;73.076;2022-07-01T05:48:48;5.30;;;3.10;;
72354;SDS011;60314;55.040;73.076;2022-07-01T05:51:14;11.00;;;3.35;;
72354;SDS011;60314;55.040;73.076;2022-07-01T05:53:41;5.30;;;2.83;;
72354;SDS011;60314;55.040;73.076;2022-07-01T05:56:09;7.18;;;2.97;;
72354;SDS011;60314;55.040;73.076;2022-07-01T05:58:36;6.68;;;3.20;;
72354;SDS011;60314;55.040;73.076;2022-07-01T06:01:02;5.18;;;3.08;;
72354;SDS011;60314;55.040;73.076;2022-07-01T06:03:29;6.20;;;3.17;;
72354;SDS011;60314;55.040;73.076;2022-07-01T06:06:11;4.75;;;2.80;;
72354;SDS011;60314;55.040;73.076;2022-07-01T06:08:38;4.95;;;3.10;;
72354;SDS011;60314;55.040;73.076;2022-07-01T06:11:04;7.03;;;3.17;;
72354;SDS011;60314;55.040;73.076;2022-07-01T06:13:31;6.88;;;3.17;;
72354;SDS011;60314;55.040;73.076;2022-07-01T06:16:15;6.85;;;2.90;;
72354;SDS011;60314;55.040;73.076;2022-07-01T06:18:42;8.90;;;3.40;;
72354;SDS011;60314;55.040;73.076;2022-07-01T06:21:08;6.90;;;2.80;;
72354;SDS011;60314;55.040;73.076;2022-07-01T06:23:35;7.18;;;3.13;;
72354;SDS011;60314;55.040;73.076;2022-07-01T06:26:01;5.45;;;3.40;;
72354;SDS011;60314;55.040;73.076;2022-07-01T06:28:29;6.38;;;3.60;;
72354;SDS011;60314;55.040;73.076;2022-07-01T06:30:56;7.05;;;3.95;;
72354;SDS011;60314;55.040;73.076;2022-07-01T06:33:23;6.18;;;3.55;;
72354;SDS011;60314;55.040;73.076;2022-07-01T06:35:51;6.97;;;3.60;;
72354;SDS011;60314;55.040;73.076;2022-07-01T06:38:17;11.55;;;3.85;;
72354;SDS011;60314;55.040;73.076;2022-07-01T06:40:44;8.80;;;3.90;;
72354;SDS011;60314;55.040;73.076;2022-07-01T06:43:30;5.72;;;3.47;;
72354;SDS011;60314;55.040;73.076;2022-07-01T06:45:57;7.18;;;3.42;;
72354;SDS011;60314;55.040;73.076;2022-07-01T06:48:23;7.30;;;3.50;;
72354;SDS011;60314;55.040;73.076;2022-07-01T06:50:50;9.32;;;3.17;;
72354;SDS011;60314;55.040;73.076;2022-07-01T06:53:26;6.72;;;3.45;;
72354;SDS011;60314;55.040;73.076;2022-07-01T06:55:53;6.43;;;3.53;;
72354;SDS011;60314;55.040;73.076;2022-07-01T06:58:19;6.70;;;3.40;;
72354;SDS011;60314;55.040;73.076;2022-07-01T07:00:46;6.50;;;3.22;;
72354;SDS011;60314;55.040;73.076;2022-07-01T07:03:13;8.07;;;3.83;;
72354;SDS011;60314;55.040;73.076;2022-07-01T07:05:49;6.78;;;3.33;;
72354;SDS011;60314;55.040;73.076;2022-07-01T07:08:17;6.47;;;3.30;;
72354;SDS011;60314;55.040;73.076;2022-07-01T07:10:50;8.48;;;3.38;;
72354;SDS011;60314;55.040;73.076;2022-07-01T07:15:48;7.22;;;3.95;;
72354;SDS011;60314;55.040;73.076;2022-07-01T07:18:15;9.07;;;3.90;;
72354;SDS011;60314;55.040;73.076;2022-07-01T07:20:52;6.43;;;3.85;;
72354;SDS011;60314;55.040;73.076;2022-07-01T07:23:29;7.53;;;4.10;;
72354;SDS011;60314;55.040;73.076;2022-07-01T07:25:55;8.73;;;4.07;;
72354;SDS011;60314;55.040;73.076;2022-07-01T07:28:22;6.50;;;4.03;;
72354;SDS011;60314;55.040;73.076;2022-07-01T07:30:49;8.32;;;4.07;;
72354;SDS011;60314;55.040;73.076;2022-07-01T07:33:15;8.57;;;3.83;;
72354;SDS011;60314;55.040;73.076;2022-07-01T07:35:47;4.93;;;3.35;;
72354;SDS011;60314;55.040;73.076;2022-07-01T07:38:14;6.45;;;3.70;;
72354;SDS011;60314;55.040;73.076;2022-07-01T07:40:40;6.10;;;3.50;;
72354;SDS011;60314;55.040;73.076;2022-07-01T07:43:12;6.13;;;3.70;;
72354;SDS011;60314;55.040;73.076;2022-07-01T07:45:49;8.93;;;3.78;;
72354;SDS011;60314;55.040;73.076;2022-07-01T07:48:16;6.40;;;3.60;;
72354;SDS011;60314;55.040;73.076;2022-07-01T07:50:53;8.98;;;3.72;;
72354;SDS011;60314;55.040;73.076;2022-07-01T07:53:29;4.82;;;3.30;;
72354;SDS011;60314;55.040;73.076;2022-07-01T07:55:56;5.93;;;3.42;;
72354;SDS011;60314;55.040;73.076;2022-07-01T07:58:22;6.85;;;3.35;;
72354;SDS011;60314;55.040;73.076;2022-07-01T08:01:00;7.60;;;3.28;;
72354;SDS011;60314;55.040;73.076;2022-07-01T08:03:26;5.80;;;3.35;;
72354;SDS011;60314;55.040;73.076;2022-07-01T08:05:53;5.57;;;3.10;;
72354;SDS011;60314;55.040;73.076;2022-07-01T08:08:19;5.30;;;3.53;;
72354;SDS011;60314;55.040;73.076;2022-07-01T08:10:46;5.43;;;3.60;;
72354;SDS011;60314;55.040;73.076;2022-07-01T08:13:36;9.52;;;3.97;;
72354;SDS011;60314;55.040;73.076;2022-07-01T08:16:09;5.13;;;3.15;;
72354;SDS011;60314;55.040;73.076;2022-07-01T08:18:41;5.47;;;3.60;;
72354;SDS011;60314;55.040;73.076;2022-07-01T08:21:27;9.85;;;3.13;;
72354;SDS011;60314;55.040;73.076;2022-07-01T08:23:54;5.05;;;3.45;;
72354;SDS011;60314;55.040;73.076;2022-07-01T08:26:21;5.55;;;3.63;;
72354;SDS011;60314;55.040;73.076;2022-07-01T08:28:47;7.38;;;4.00;;
72354;SDS011;60314;55.040;73.076;2022-07-01T08:31:14;6.25;;;3.60;;
72354;SDS011;60314;55.040;73.076;2022-07-01T08:33:41;6.95;;;4.07;;
72354;SDS011;60314;55.040;73.076;2022-07-01T08:36:17;6.03;;;3.83;;
72354;SDS011;60314;55.040;73.076;2022-07-01T08:41:29;7.60;;;3.75;;
72354;SDS011;60314;55.040;73.076;2022-07-01T08:43:55;8.82;;;3.78;;
72354;SDS011;60314;55.040;73.076;2022-07-01T08:46:22;6.38;;;3.63;;
72354;SDS011;60314;55.040;73.076;2022-07-01T08:48:50;4.93;;;3.45;;
72354;SDS011;60314;55.040;73.076;2022-07-01T08:51:16;6.63;;;3.92;;
72354;SDS011;60314;55.040;73.076;2022-07-01T08:53:47;6.17;;;3.47;;
72354;SDS011;60314;55.040;73.076;2022-07-01T08:56:14;9.88;;;4.65;;
72354;SDS011;60314;55.040;73.076;2022-07-01T08:58:59;9.77;;;3.88;;
72354;SDS011;60314;55.040;73.076;2022-07-01T09:01:26;5.57;;;3.72;;
72354;SDS011;60314;55.040;73.076;2022-07-01T09:06:51;6.05;;;3.88;;
72354;SDS011;60314;55.040;73.076;2022-07-01T09:09:27;6.85;;;3.90;;
72354;SDS011;60314;55.040;73.076;2022-07-01T09:11:54;6.20;;;3.80;;
72354;SDS011;60314;55.040;73.076;2022-07-01T09:14:23;6.20;;;3.95;;
72354;SDS011;60314;55.040;73.076;2022-07-01T09:16:57;8.75;;;4.07;;
72354;SDS011;60314;55.040;73.076;2022-07-01T09:19:26;7.18;;;4.65;;
72354;SDS011;60314;55.040;73.076;2022-07-01T09:21:57;6.57;;;4.40;;
72354;SDS011;60314;55.040;73.076;2022-07-01T09:24:27;9.55;;;4.28;;
72354;SDS011;60314;55.040;73.076;2022-07-01T09:27:03;6.78;;;3.97;;
72354;SDS011;60314;55.040;73.076;2022-07-01T09:29:40;8.65;;;4.47;;
72354;SDS011;60314;55.040;73.076;2022-07-01T09:32:08;6.97;;;4.20;;
72354;SDS011;60314;55.040;73.076;2022-07-01T09:34:43;6.80;;;4.28;;
72354;SDS011;60314;55.040;73.076;2022-07-01T09:37:21;5.93;;;3.80;;
72354;SDS011;60314;55.040;73.076;2022-07-01T09:42:19;6.20;;;4.25;;
72354;SDS011;60314;55.040;73.076;2022-07-01T09:44:53;8.60;;;4.20;;
72354;SDS011;60314;55.040;73.076;2022-07-01T09:47:31;7.05;;;4.30;;
72354;SDS011;60314;55.040;73.076;2022-07-01T09:49:59;7.60;;;4.80;;
72354;SDS011;60314;55.040;73.076;2022-07-01T09:52:27;16.23;;;4.70;;
72354;SDS011;60314;55.040;73.076;2022-07-01T09:54:54;6.15;;;4.82;;
72354;SDS011;60314;55.040;73.076;2022-07-01T09:57:21;7.75;;;4.45;;
72354;SDS011;60314;55.040;73.076;2022-07-01T09:59:49;6.65;;;4.63;;
72354;SDS011;60314;55.040;73.076;2022-07-01T10:02:18;9.60;;;4.32;;
72354;SDS011;60314;55.040;73.076;2022-07-01T10:04:53;7.93;;;4.72;;
72354;SDS011;60314;55.040;73.076;2022-07-01T10:12:50;7.15;;;5.70;;
72354;SDS011;60314;55.040;73.076;2022-07-01T10:15:24;7.47;;;6.20;;
72354;SDS011;60314;55.040;73.076;2022-07-01T10:17:51;8.30;;;5.82;;
72354;SDS011;60314;55.040;73.076;2022-07-01T10:20:24;6.75;;;6.00;;
72354;SDS011;60314;55.040;73.076;2022-07-01T10:23:10;9.15;;;6.50;;
72354;SDS011;60314;55.040;73.076;2022-07-01T10:25:44;8.57;;;6.20;;
72354;SDS011;60314;55.040;73.076;2022-07-01T10:28:20;8.75;;;5.13;;
72354;SDS011;60314;55.040;73.076;2022-07-01T10:31:05;6.22;;;5.30;;
72354;SDS011;60314;55.040;73.076;2022-07-01T10:36:15;8.25;;;5.10;;
72354;SDS011;60314;55.040;73.076;2022-07-01T10:41:36;6.85;;;5.65;;
72354;SDS011;60314;55.040;73.076;2022-07-01T10:44:06;9.38;;;6.25;;
72354;SDS011;60314;55.040;73.076;2022-07-01T10:49:07;7.55;;;6.10;;
72354;SDS011;60314;55.040;73.076;2022-07-01T10:51:47;11.07;;;7.85;;
72354;SDS011;60314;55.040;73.076;2022-07-01T11:02:30;8.68;;;6.35;;
72354;SDS011;60314;55.040;73.076;2022-07-01T11:07:34;14.25;;;6.55;;
72354;SDS011;60314;55.040;73.076;2022-07-01T11:10:03;9.35;;;6.30;;
72354;SDS011;60314;55.040;73.076;2022-07-01T11:12:33;8.90;;;6.00;;
72354;SDS011;60314;55.040;73.076;2022-07-01T11:15:00;8.38;;;5.82;;
72354;SDS011;60314;55.040;73.076;2022-07-01T11:17:27;6.47;;;5.72;;
72354;SDS011;60314;55.040;73.076;2022-07-01T11:19:55;8.25;;;6.10;;
72354;SDS011;60314;55.040;73.076;2022-07-01T11:22:25;7.55;;;6.03;;
72354;SDS011;60314;55.040;73.076;2022-07-01T11:24:57;8.65;;;6.07;;
72354;SDS011;60314;55.040;73.076;2022-07-01T11:27:25;8.35;;;6.10;;
72354;SDS011;60314;55.040;73.076;2022-07-01T11:29:53;7.18;;;5.97;;
72354;SDS011;60314;55.040;73.076;2022-07-01T11:32:27;7.32;;;5.82;;
72354;SDS011;60314;55.040;73.076;2022-07-01T11:34:56;8.75;;;6.10;;
72354;SDS011;60314;55.040;73.076;2022-07-01T11:37:30;7.57;;;5.65;;
72354;SDS011;60314;55.040;73.076;2022-07-01T11:40:17;12.40;;;5.70;;
72354;SDS011;60314;55.040;73.076;2022-07-01T11:42:44;8.02;;;5.57;;
72354;SDS011;60314;55.040;73.076;2022-07-01T11:45:24;8.43;;;5.88;;
72354;SDS011;60314;55.040;73.076;2022-07-01T11:48:02;10.32;;;5.97;;
72354;SDS011;60314;55.040;73.076;2022-07-01T11:50:28;9.30;;;6.00;;
72354;SDS011;60314;55.040;73.076;2022-07-01T11:52:55;7.32;;;6.35;;
72354;SDS011;60314;55.040;73.076;2022-07-01T11:55:22;11.23;;;6.40;;
72354;SDS011;60314;55.040;73.076;2022-07-01T11:57:49;9.02;;;6.90;;
72354;SDS011;60314;55.040;73.076;2022-07-01T12:00:18;7.82;;;6.50;;
72354;SDS011;60314;55.040;73.076;2022-07-01T12:03:03;10.68;;;6.00;;
72354;SDS011;60314;55.040;73.076;2022-07-01T12:05:32;7.47;;;5.88;;
72354;SDS011;60314;55.040;73.076;2022-07-01T12:08:01;6.68;;;5.95;;
72354;SDS011;60314;55.040;73.076;2022-07-01T12:10:38;7.25;;;5.55;;
72354;SDS011;60314;55.040;73.076;2022-07-01T12:13:20;12.07;;;7.47;;
72354;SDS011;60314;55.040;73.076;2022-07-01T12:15:50;8.55;;;6.40;;
72354;SDS011;60314;55.040;73.076;2022-07-01T12:18:17;8.18;;;6.25;;
72354;SDS011;60314;55.040;73.076;2022-07-01T12:20:49;8.43;;;5.80;;
72354;SDS011;60314;55.040;73.076;2022-07-01T12:23:24;9.75;;;6.85;;
72354;SDS011;60314;55.040;73.076;2022-07-01T12:25:51;7.45;;;5.78;;
72354;SDS011;60314;55.040;73.076;2022-07-01T12:28:32;11.43;;;6.38;;
72354;SDS011;60314;55.040;73.076;2022-07-01T12:31:04;8.60;;;6.22;;
72354;SDS011;60314;55.040;73.076;2022-07-01T12:33:34;8.20;;;5.38;;
72354;SDS011;60314;55.040;73.076;2022-07-01T12:36:06;11.82;;;5.53;;
72354;SDS011;60314;55.040;73.076;2022-07-01T12:38:33;6.68;;;5.50;;
72354;SDS011;60314;55.040;73.076;2022-07-01T12:41:00;6.63;;;5.47;;
72354;SDS011;60314;55.040;73.076;2022-07-01T12:43:28;9.90;;;5.40;;
72354;SDS011;60314;55.040;73.076;2022-07-01T12:46:02;6.57;;;5.40;;
72354;SDS011;60314;55.040;73.076;2022-07-01T12:48:29;9.57;;;5.63;;
72354;SDS011;60314;55.040;73.076;2022-07-01T12:51:14;6.97;;;5.60;;
72354;SDS011;60314;55.040;73.076;2022-07-01T12:53:41;6.60;;;5.18;;
72354;SDS011;60314;55.040;73.076;2022-07-01T12:56:07;8.93;;;5.35;;
72354;SDS011;60314;55.040;73.076;2022-07-01T12:58:34;7.85;;;5.63;;
72354;SDS011;60314;55.040;73.076;2022-07-01T13:01:01;7.43;;;5.38;;
72354;SDS011;60314;55.040;73.076;2022-07-01T13:03:27;7.93;;;5.15;;
72354;SDS011;60314;55.040;73.076;2022-07-01T13:05:54;8.98;;;5.10;;
72354;SDS011;60314;55.040;73.076;2022-07-01T13:08:22;7.72;;;5.40;;
72354;SDS011;60314;55.040;73.076;2022-07-01T13:10:49;8.50;;;5.88;;
72354;SDS011;60314;55.040;73.076;2022-07-01T13:13:16;7.95;;;6.07;;
72354;SDS011;60314;55.040;73.076;2022-07-01T13:15:43;7.25;;;5.28;;
72354;SDS011;60314;55.040;73.076;2022-07-01T13:18:11;9.27;;;5.85;;
72354;SDS011;60314;55.040;73.076;2022-07-01T13:20:41;6.82;;;5.50;;
72354;SDS011;60314;55.040;73.076;2022-07-01T13:23:08;7.22;;;5.78;;
72354;SDS011;60314;55.040;73.076;2022-07-01T13:25:35;7.80;;;5.70;;
72354;SDS011;60314;55.040;73.076;2022-07-01T13:28:02;7.78;;;5.55;;
72354;SDS011;60314;55.040;73.076;2022-07-01T13:30:29;7.00;;;5.35;;
72354;SDS011;60314;55.040;73.076;2022-07-01T13:32:56;11.70;;;6.07;;
72354;SDS011;60314;55.040;73.076;2022-07-01T13:35:23;6.65;;;5.55;;
72354;SDS011;60314;55.040;73.076;2022-07-01T13:37:50;15.32;;;5.70;;
72354;SDS011;60314;55.040;73.076;2022-07-01T13:40:17;9.25;;;5.47;;
72354;SDS011;60314;55.040;73.076;2022-07-01T13:42:43;8.35;;;5.55;;
72354;SDS011;60314;55.040;73.076;2022-07-01T13:45:10;10.23;;;5.45;;
72354;SDS011;60314;55.040;73.076;2022-07-01T13:47:37;8.90;;;5.90;;
72354;SDS011;60314;55.040;73.076;2022-07-01T13:50:04;10.00;;;5.93;;
72354;SDS011;60314;55.040;73.076;2022-07-01T13:52:30;6.93;;;5.47;;
72354;SDS011;60314;55.040;73.076;2022-07-01T13:54:57;9.05;;;5.82;;
72354;SDS011;60314;55.040;73.076;2022-07-01T13:57:25;8.98;;;5.63;;
72354;SDS011;60314;55.040;73.076;2022-07-01T13:59:52;6.40;;;5.25;;
72354;SDS011;60314;55.040;73.076;2022-07-01T14:02:28;7.72;;;5.72;;
72354;SDS011;60314;55.040;73.076;2022-07-01T14:04:55;12.18;;;6.28;;
72354;SDS011;60314;55.040;73.076;2022-07-01T14:07:21;6.88;;;5.38;;
72354;SDS011;60314;55.040;73.076;2022-07-01T14:09:47;9.95;;;6.10;;
72354;SDS011;60314;55.040;73.076;2022-07-01T14:12:14;10.38;;;5.53;;
72354;SDS011;60314;55.040;73.076;2022-07-01T14:14:41;10.35;;;5.30;;
72354;SDS011;60314;55.040;73.076;2022-07-01T14:17:08;12.40;;;6.93;;
72354;SDS011;60314;55.040;73.076;2022-07-01T14:19:35;10.68;;;6.63;;
72354;SDS011;60314;55.040;73.076;2022-07-01T14:22:12;8.50;;;6.63;;
72354;SDS011;60314;55.040;73.076;2022-07-01T14:24:39;11.13;;;7.35;;
72354;SDS011;60314;55.040;73.076;2022-07-01T14:27:24;9.77;;;6.85;;
72354;SDS011;60314;55.040;73.076;2022-07-01T14:29:50;8.30;;;6.57;;
72354;SDS011;60314;55.040;73.076;2022-07-01T14:32:17;10.30;;;6.93;;
72354;SDS011;60314;55.040;73.076;2022-07-01T14:34:47;9.85;;;6.18;;
72354;SDS011;60314;55.040;73.076;2022-07-01T14:37:13;11.27;;;6.80;;
72354;SDS011;60314;55.040;73.076;2022-07-01T14:39:40;11.55;;;7.20;;
72354;SDS011;60314;55.040;73.076;2022-07-01T14:42:11;9.95;;;6.38;;
72354;SDS011;60314;55.040;73.076;2022-07-01T14:44:38;12.27;;;7.82;;
72354;SDS011;60314;55.040;73.076;2022-07-01T14:47:14;11.02;;;8.18;;
72354;SDS011;60314;55.040;73.076;2022-07-01T14:49:43;12.50;;;7.78;;
72354;SDS011;60314;55.040;73.076;2022-07-01T14:52:21;12.75;;;8.48;;
72354;SDS011;60314;55.040;73.076;2022-07-01T14:54:50;10.30;;;6.97;;
72354;SDS011;60314;55.040;73.076;2022-07-01T14:57:17;9.80;;;7.00;;
72354;SDS011;60314;55.040;73.076;2022-07-01T14:59:53;9.98;;;7.13;;
72354;SDS011;60314;55.040;73.076;2022-07-01T15:02:24;8.93;;;6.83;;
72354;SDS011;60314;55.040;73.076;2022-07-01T15:04:51;9.82;;;6.97;;
72354;SDS011;60314;55.040;73.076;2022-07-01T15:07:17;10.50;;;6.65;;
72354;SDS011;60314;55.040;73.076;2022-07-01T15:09:44;10.50;;;6.57;;
72354;SDS011;60314;55.040;73.076;2022-07-01T15:12:10;8.45;;;6.75;;
72354;SDS011;60314;55.040;73.076;2022-07-01T15:14:37;9.60;;;6.97;;
72354;SDS011;60314;55.040;73.076;2022-07-01T15:17:04;11.55;;;7.68;;
72354;SDS011;60314;55.040;73.076;2022-07-01T15:19:30;11.25;;;7.68;;
72354;SDS011;60314;55.040;73.076;2022-07-01T15:21:57;13.82;;;9.30;;
72354;SDS011;60314;55.040;73.076;2022-07-01T15:24:34;11.50;;;7.00;;